createdAt,value
2016-11-07T11:03:17.018Z,20
2016-11-07T11:04:15.588Z,20
2016-11-07T11:06:20.308Z,25
2016-11-07T11:07:30.663Z,25
2016-11-07T11:08:41.035Z,25
2016-11-07T11:09:52.031Z,25
2016-11-07T11:11:02.381Z,25
2016-11-07T11:12:12.996Z,25
2016-11-07T11:13:23.363Z,25
2016-11-07T11:14:33.976Z,25
2016-11-07T11:15:44.346Z,30
2016-11-07T11:16:55.187Z,25
2016-11-07T11:18:05.556Z,25
2016-11-07T11:19:15.912Z,25
2016-11-07T11:20:26.385Z,25
2016-11-07T11:21:36.783Z,25
2016-11-07T11:22:47.154Z,25
2016-11-07T11:25:37.745Z,25
2016-11-07T11:26:48.134Z,25
2016-11-07T11:28:13.076Z,25
2016-11-07T11:29:23.712Z,25
2016-11-07T11:30:34.319Z,25
2016-11-07T11:31:44.814Z,25
2016-11-07T11:32:55.308Z,25
2016-11-07T11:34:05.809Z,25
2016-11-07T11:35:16.681Z,25
2016-11-07T11:36:27.366Z,25
2016-11-07T11:37:37.910Z,25
2016-11-07T11:38:48.412Z,25
2016-11-07T11:40:13.452Z,25
2016-11-07T11:41:24.133Z,25
2016-11-07T11:43:59.812Z,25
2016-11-07T11:45:10.300Z,25
2016-11-07T11:46:21.437Z,30
2016-11-07T11:47:31.943Z,30
2016-11-07T11:48:42.852Z,30
2016-11-07T11:49:53.357Z,30
2016-11-07T11:51:04.061Z,30
2016-11-07T11:52:14.610Z,25
2016-11-07T11:53:26.868Z,30
2016-11-07T11:54:37.383Z,35
2016-11-07T11:55:47.907Z,35
2016-11-07T11:56:58.403Z,35
2016-11-07T11:58:09.100Z,35
2016-11-07T12:01:00.398Z,35
2016-11-07T12:02:25.437Z,35
2016-11-07T12:03:35.858Z,40
2016-11-07T12:04:46.435Z,40
2016-11-07T12:05:56.815Z,45
2016-11-07T12:07:08.728Z,40
2016-11-07T12:08:19.609Z,40
2016-11-07T12:09:30.002Z,45
2016-11-07T12:10:40.389Z,45
2016-11-07T12:11:50.791Z,45
2016-11-07T12:13:01.169Z,45
2016-11-07T12:14:11.564Z,50
2016-11-07T12:15:22.040Z,55
2016-11-07T12:16:32.627Z,55
2016-11-07T12:17:43.053Z,55
2016-11-07T12:19:07.997Z,55
2016-11-07T12:20:18.486Z,60
2016-11-07T12:21:28.862Z,60
2016-11-07T12:22:39.243Z,60
2016-11-07T12:23:49.625Z,65
2016-11-07T12:25:00.214Z,65
2016-11-07T12:26:10.796Z,70
2016-11-07T12:27:21.202Z,70
2016-11-07T12:28:31.589Z,75
2016-11-07T12:29:41.969Z,70
2016-11-07T12:30:52.373Z,70
2016-11-07T12:32:02.870Z,70
2016-11-07T12:33:13.240Z,70
2016-11-07T12:34:23.660Z,70
2016-11-07T12:35:34.045Z,60
2016-11-07T12:36:44.438Z,40
2016-11-07T12:37:54.836Z,70
2016-11-07T12:39:05.228Z,70
2016-11-07T12:40:15.618Z,75
2016-11-07T12:41:27.417Z,75
2016-11-07T12:42:37.802Z,75
2016-11-07T12:45:13.127Z,80
2016-11-07T12:46:23.524Z,75
2016-11-07T12:47:34.133Z,75
2016-11-07T12:48:44.624Z,85
2016-11-07T12:49:55.027Z,80
2016-11-07T12:51:05.421Z,80
2016-11-07T12:52:16.320Z,85
2016-11-07T12:53:27.127Z,60
2016-11-07T12:54:37.935Z,55
2016-11-07T12:55:48.344Z,85
2016-11-07T12:56:58.788Z,40
2016-11-07T12:58:09.383Z,40
2016-11-07T12:59:19.992Z,45
2016-11-07T13:00:30.494Z,80
2016-11-07T13:01:41.387Z,65
2016-11-07T13:02:51.894Z,80
2016-11-07T13:04:02.397Z,85
2016-11-07T13:05:12.901Z,85
2016-11-07T13:06:23.800Z,85
2016-11-07T13:07:34.307Z,85
2016-11-07T13:08:44.811Z,90
2016-11-07T13:09:55.637Z,90
2016-11-07T13:11:20.969Z,85
2016-11-07T13:12:31.993Z,90
2016-11-07T13:13:43.119Z,85
2016-11-07T13:15:08.251Z,85
2016-11-07T13:16:18.874Z,90
2016-11-07T13:17:29.507Z,90
2016-11-07T13:18:40.128Z,85
2016-11-07T13:19:50.747Z,80
2016-11-07T13:21:01.374Z,75
2016-11-07T13:22:12.186Z,80
2016-11-07T13:23:23.311Z,85
2016-11-07T13:24:33.948Z,90
2016-11-07T13:25:44.608Z,90
2016-11-07T13:26:55.240Z,90
2016-11-07T13:28:05.865Z,90
2016-11-07T13:29:16.504Z,90
2016-11-07T13:30:27.124Z,90
2016-11-07T13:31:37.944Z,80
2016-11-07T13:32:48.566Z,85
2016-11-07T13:33:59.893Z,85
2016-11-07T13:35:25.619Z,80
2016-11-07T13:36:36.239Z,55
2016-11-07T13:37:46.860Z,90
2016-11-07T13:38:57.479Z,80
2016-11-07T13:40:08.111Z,80
2016-11-07T13:41:18.959Z,40
2016-11-07T13:42:44.285Z,60
2016-11-07T13:43:55.346Z,75
2016-11-07T13:45:20.921Z,85
2016-11-07T13:46:31.454Z,80
2016-11-07T13:47:42.194Z,75
2016-11-07T13:48:52.755Z,65
2016-11-07T13:50:03.685Z,75
2016-11-07T13:51:14.410Z,60
2016-11-07T13:52:25.142Z,50
2016-11-07T13:53:35.677Z,45
2016-11-07T13:54:46.603Z,40
2016-11-07T13:55:57.236Z,45
2016-11-07T13:57:07.957Z,45
2016-11-07T13:58:18.492Z,45
2016-11-07T13:59:29.025Z,50
2016-11-07T14:00:54.288Z,50
2016-11-07T14:02:04.817Z,45
2016-11-07T14:03:15.382Z,45
2016-11-07T14:04:26.028Z,45
2016-11-07T14:05:36.589Z,50
2016-11-07T14:07:01.850Z,50
2016-11-07T14:08:12.596Z,55
2016-11-07T14:09:23.320Z,55
2016-11-07T14:10:34.398Z,55
2016-11-07T14:11:45.135Z,55
2016-11-07T14:12:56.067Z,50
2016-11-07T14:14:06.999Z,50
2016-11-07T14:15:17.545Z,50
2016-11-07T14:16:29.021Z,50
2016-11-07T14:17:39.753Z,45
2016-11-07T14:18:50.291Z,45
2016-11-07T14:20:00.824Z,45
2016-11-07T14:21:11.361Z,40
2016-11-07T14:22:21.924Z,40
2016-11-07T14:23:47.265Z,45
2016-11-07T14:25:12.579Z,40
2016-11-07T14:26:23.115Z,45
2016-11-07T14:27:34.023Z,40
2016-11-07T14:28:45.654Z,35
2016-11-07T14:29:56.192Z,35
2016-11-07T14:31:06.818Z,35
2016-11-07T14:32:17.439Z,35
2016-11-07T14:33:28.070Z,35
2016-11-07T14:34:38.693Z,35
2016-11-07T14:35:49.720Z,35
2016-11-07T14:37:00.343Z,35
2016-11-07T14:38:11.370Z,35
2016-11-07T14:40:47.485Z,35
2016-11-07T14:42:12.616Z,35
2016-11-07T14:43:23.241Z,40
2016-11-07T14:44:33.870Z,50
2016-11-07T14:45:44.999Z,65
2016-11-07T14:46:55.804Z,65
2016-11-07T14:48:06.423Z,50
2016-11-07T14:52:22.465Z,45
2016-11-07T14:53:33.328Z,45
2016-11-07T14:54:44.149Z,50
2016-11-07T14:57:20.588Z,40
2016-11-07T14:58:31.248Z,40
2016-11-07T14:59:42.090Z,40
2016-11-07T15:00:53.149Z,40
2016-11-07T15:02:18.286Z,40
2016-11-07T15:03:28.918Z,40
2016-11-07T15:04:39.543Z,45
2016-11-07T15:05:50.164Z,40
2016-11-07T15:07:00.785Z,70
2016-11-07T15:08:11.816Z,70
2016-11-07T15:09:22.448Z,70
2016-11-07T15:10:33.516Z,55
2016-11-07T15:11:59.153Z,45
2016-11-07T15:13:09.786Z,60
2016-11-07T15:14:20.438Z,60
2016-11-07T15:15:31.086Z,65
2016-11-07T15:17:07.610Z,65
2016-11-07T15:18:18.049Z,65
2016-11-07T15:21:08.666Z,70
2016-11-07T15:22:19.077Z,65
2016-11-07T15:23:29.489Z,70
2016-11-07T15:24:40.185Z,70
2016-11-07T15:25:50.721Z,65
2016-11-07T15:27:01.653Z,55
2016-11-07T15:28:12.185Z,70
2016-11-07T15:29:23.121Z,70
2016-11-07T15:30:34.452Z,70
2016-11-07T15:31:45.023Z,70
2016-11-07T15:32:55.555Z,65
2016-11-07T15:34:06.088Z,60
2016-11-07T15:35:17.021Z,40
2016-11-07T15:36:42.126Z,55
2016-11-07T15:37:52.662Z,45
2016-11-07T15:39:04.728Z,45
2016-11-07T15:40:17.006Z,40
2016-11-07T15:41:43.023Z,45
2016-11-07T15:42:53.749Z,40
2016-11-07T15:44:04.482Z,40
2016-11-07T15:45:17.404Z,40
2016-11-07T15:46:42.652Z,40
2016-11-07T15:47:53.189Z,40
2016-11-07T15:50:29.295Z,40
2016-11-07T15:51:54.357Z,40
2016-11-07T15:53:04.889Z,40
2016-11-07T15:54:15.426Z,40
2016-11-07T15:55:26.149Z,45
2016-11-07T15:56:36.680Z,40
2016-11-07T15:57:47.466Z,40
2016-11-07T15:58:58.701Z,45
2016-11-07T16:00:09.243Z,55
2016-11-07T16:01:19.782Z,45
2016-11-07T16:02:30.711Z,45
2016-11-07T16:03:41.829Z,45
2016-11-07T16:04:52.373Z,40
2016-11-07T16:06:02.905Z,40
2016-11-07T16:07:13.505Z,40
2016-11-07T16:08:24.267Z,40
2016-11-07T16:09:34.799Z,40
2016-11-07T16:10:45.336Z,40
2016-11-07T16:11:55.870Z,55
2016-11-07T16:13:06.897Z,55
2016-11-07T16:14:17.434Z,50
2016-11-07T16:15:27.966Z,55
2016-11-07T16:16:38.894Z,55
2016-11-07T16:17:49.422Z,55
2016-11-07T16:18:59.960Z,50
2016-11-07T16:20:10.495Z,40
2016-11-07T16:21:21.230Z,40
2016-11-07T16:22:31.765Z,35
2016-11-07T16:23:42.295Z,35
2016-11-07T16:24:53.222Z,40
2016-11-07T16:26:04.956Z,40
2016-11-07T16:27:15.437Z,35
2016-11-07T16:28:25.885Z,40
2016-11-07T16:29:36.823Z,35
2016-11-07T16:30:47.267Z,35
2016-11-07T16:31:57.710Z,30
2016-11-07T16:33:08.050Z,30
2016-11-07T16:34:18.410Z,30
2016-11-07T16:35:28.733Z,40
2016-11-07T16:36:39.537Z,45
2016-11-07T16:37:49.864Z,45
2016-11-07T16:39:00.704Z,55
2016-11-07T16:40:11.027Z,50
2016-11-07T16:41:21.387Z,40
2016-11-07T16:42:31.741Z,35
2016-11-07T16:43:42.064Z,45
2016-11-07T16:45:06.962Z,45
2016-11-07T16:46:17.284Z,40
2016-11-07T16:47:42.176Z,40
2016-11-07T16:48:52.498Z,40
2016-11-07T16:50:02.820Z,30
2016-11-07T16:51:13.143Z,40
2016-11-07T16:52:24.171Z,35
2016-11-07T16:53:34.529Z,45
2016-11-07T16:54:44.849Z,45
2016-11-07T16:55:55.170Z,45
2016-11-07T16:57:05.490Z,45
2016-11-07T16:58:30.583Z,40
2016-11-07T16:59:40.905Z,40
2016-11-07T17:00:51.225Z,35
2016-11-07T17:02:01.550Z,25
2016-11-07T17:03:11.873Z,25
2016-11-07T17:04:22.196Z,25
2016-11-07T17:05:32.626Z,20
2016-11-07T17:06:43.066Z,20
2016-11-07T17:07:53.509Z,15
2016-11-07T17:09:04.152Z,20
2016-11-07T17:10:15.148Z,20
2016-11-07T17:11:25.586Z,20
2016-11-07T17:12:36.028Z,20
2016-11-07T17:13:46.465Z,20
2016-11-07T17:14:56.945Z,20
2016-11-07T17:16:07.435Z,20
2016-11-07T17:17:17.881Z,20
2016-11-07T17:18:42.865Z,20
2016-11-07T17:19:53.343Z,20
2016-11-07T17:21:03.783Z,20
2016-11-07T17:22:14.228Z,20
2016-11-07T17:23:25.153Z,20
2016-11-07T17:24:50.140Z,20
2016-11-07T17:26:00.616Z,20
2016-11-07T17:27:11.057Z,20
2016-11-07T17:28:36.041Z,20
2016-11-07T17:29:47.072Z,20
2016-11-07T17:30:57.833Z,20
2016-11-07T17:32:08.365Z,20
2016-11-07T17:33:33.429Z,20
2016-11-07T17:34:43.959Z,20
2016-11-07T17:35:54.532Z,20
2016-11-07T17:37:05.067Z,20
2016-11-07T17:38:15.600Z,20
2016-11-07T17:39:26.144Z,20
2016-11-07T17:40:36.673Z,20
2016-11-07T17:42:01.735Z,20
2016-11-07T17:43:12.271Z,20
2016-11-07T17:44:22.838Z,20
2016-11-07T17:45:33.374Z,20
2016-11-07T17:46:43.905Z,20
2016-11-07T17:47:54.440Z,20
2016-11-07T17:49:05.159Z,20
2016-11-07T17:50:15.692Z,20
2016-11-07T17:51:26.224Z,20
2016-11-07T17:52:36.763Z,20
2016-11-07T17:53:47.294Z,20
2016-11-07T17:54:57.859Z,20
2016-11-07T17:56:08.391Z,20
2016-11-07T17:57:18.928Z,20
2016-11-07T17:58:29.461Z,20
2016-11-07T17:59:40.027Z,20
2016-11-07T18:01:05.084Z,20
2016-11-07T18:02:15.618Z,20
2016-11-07T18:03:26.255Z,20
2016-11-07T18:04:36.820Z,20
2016-11-07T18:05:47.361Z,20
2016-11-07T18:06:57.963Z,20
2016-11-07T18:08:08.497Z,20
2016-11-07T18:09:19.032Z,20
2016-11-07T18:10:29.564Z,20
2016-11-07T18:11:40.097Z,20
2016-11-07T18:12:51.139Z,20
2016-11-07T18:14:30.685Z,20
2016-11-07T18:15:55.670Z,20
2016-11-07T18:17:06.596Z,20
2016-11-07T18:18:17.040Z,20
2016-11-07T18:19:27.578Z,20
2016-11-07T18:20:38.014Z,20
2016-11-07T18:21:48.482Z,20
2016-11-07T18:22:58.957Z,20
2016-11-07T18:24:09.395Z,20
2016-11-07T18:25:19.837Z,20
2016-11-07T18:26:30.277Z,20
2016-11-07T18:27:40.721Z,20
2016-11-07T18:28:51.159Z,20
2016-11-07T18:30:01.599Z,20
2016-11-07T18:31:12.624Z,20
2016-11-07T18:32:23.071Z,25
2016-11-07T18:33:33.508Z,25
2016-11-07T18:34:44.440Z,20
2016-11-07T18:35:55.380Z,20
2016-11-07T18:37:05.923Z,25
2016-11-07T18:38:16.366Z,25
2016-11-07T18:39:26.807Z,25
2016-11-07T18:40:37.247Z,25
2016-11-07T18:41:47.789Z,25
2016-11-07T18:42:58.230Z,20
2016-11-07T18:44:08.704Z,20
2016-11-07T18:46:43.928Z,25
2016-11-07T18:47:54.248Z,25
2016-11-07T18:49:05.047Z,25
2016-11-07T18:50:15.370Z,25
2016-11-07T18:51:25.689Z,25
2016-11-07T18:52:36.007Z,35
2016-11-07T18:53:46.364Z,30
2016-11-07T18:54:56.684Z,25
2016-11-07T18:56:07.037Z,25
2016-11-07T18:57:31.973Z,30
2016-11-07T18:58:42.873Z,30
2016-11-07T18:59:53.193Z,30
2016-11-07T19:01:03.514Z,25
2016-11-07T19:02:13.836Z,30
2016-11-07T19:03:26.882Z,40
2016-11-07T19:04:37.206Z,30
2016-11-07T19:05:47.530Z,25
2016-11-07T19:06:58.326Z,25
2016-11-07T19:08:08.644Z,25
2016-11-07T19:09:19.002Z,25
2016-11-07T19:10:29.331Z,25
2016-11-07T19:11:39.654Z,45
2016-11-07T19:13:04.547Z,35
2016-11-07T19:14:14.874Z,45
2016-11-07T19:15:25.310Z,45
2016-11-07T19:16:36.107Z,25
2016-11-07T19:17:46.428Z,20
2016-11-07T19:19:11.319Z,20
2016-11-07T19:20:21.640Z,20
2016-11-07T19:21:32.066Z,20
2016-11-07T19:22:42.870Z,20
2016-11-07T19:24:07.763Z,20
2016-11-07T19:25:18.088Z,20
2016-11-07T19:26:42.980Z,20
2016-11-07T19:27:53.340Z,20
2016-11-07T19:29:04.145Z,20
2016-11-07T19:30:14.471Z,20
2016-11-07T19:31:24.804Z,20
2016-11-07T19:34:00.022Z,20
2016-11-07T19:35:10.345Z,20
2016-11-07T19:36:35.241Z,15
2016-11-07T19:37:45.563Z,15
2016-11-07T19:38:55.890Z,15
2016-11-07T19:40:06.242Z,15
2016-11-07T19:41:16.567Z,15
2016-11-07T19:42:26.895Z,15
2016-11-07T19:43:37.695Z,15
2016-11-07T19:44:48.018Z,15
2016-11-07T19:45:58.337Z,15
2016-11-07T19:47:09.132Z,15
2016-11-07T19:48:34.021Z,15
2016-11-07T19:49:44.390Z,15
2016-11-07T19:50:54.710Z,15
2016-11-07T19:52:05.035Z,15
2016-11-07T19:53:15.359Z,15
2016-11-07T19:54:25.683Z,15
2016-11-07T19:55:36.009Z,15
2016-11-07T19:56:46.813Z,10
2016-11-07T19:57:57.138Z,10
2016-11-07T19:59:07.464Z,10
2016-11-07T20:00:18.214Z,10
2016-11-07T20:01:28.538Z,10
2016-11-07T20:02:38.859Z,10
2016-11-07T20:04:03.746Z,5
2016-11-07T20:05:28.636Z,10
2016-11-07T20:06:38.956Z,10
2016-11-07T20:08:04.320Z,10
2016-11-07T20:09:14.641Z,10
2016-11-07T20:10:25.442Z,10
2016-11-07T20:11:35.765Z,10
2016-11-07T20:12:46.562Z,10
2016-11-07T20:13:56.889Z,5
2016-11-07T20:15:07.208Z,10
2016-11-07T20:16:17.573Z,10
2016-11-07T20:17:27.904Z,10
2016-11-07T20:18:38.224Z,10
2016-11-07T20:19:48.547Z,5
2016-11-07T20:20:59.071Z,5
2016-11-07T20:22:09.868Z,5
2016-11-07T20:23:20.192Z,5
2016-11-07T20:24:30.513Z,5
2016-11-07T20:25:40.838Z,5
2016-11-07T20:28:30.817Z,5
2016-11-07T20:29:41.148Z,5
2016-11-07T20:30:51.469Z,5
2016-11-07T20:32:16.360Z,5
2016-11-07T20:33:41.285Z,5
2016-11-07T20:34:51.603Z,5
2016-11-07T20:36:16.968Z,5
2016-11-07T20:37:27.292Z,5
2016-11-07T20:38:37.614Z,5
2016-11-07T20:39:47.932Z,5
2016-11-07T20:40:58.260Z,5
2016-11-07T20:42:08.584Z,5
2016-11-07T20:43:19.585Z,5
2016-11-07T20:44:29.908Z,5
2016-11-07T20:45:40.231Z,5
2016-11-07T20:46:50.553Z,5
2016-11-07T20:48:15.446Z,5
2016-11-07T20:49:25.769Z,5
2016-11-07T20:50:50.694Z,5
2016-11-07T20:52:01.022Z,5
2016-11-07T20:53:11.553Z,5
2016-11-07T20:54:21.887Z,5
2016-11-07T20:55:46.778Z,5
2016-11-07T20:56:57.142Z,5
2016-11-07T20:58:07.477Z,5
2016-11-07T20:59:17.946Z,0
2016-11-07T21:00:28.382Z,0
2016-11-07T21:01:38.823Z,0
2016-11-07T21:02:49.261Z,0
2016-11-07T21:03:59.701Z,0
2016-11-07T21:05:10.139Z,0
2016-11-07T21:06:20.578Z,0
2016-11-07T21:07:31.015Z,0
2016-11-07T21:08:41.449Z,0
2016-11-07T21:09:51.887Z,0
2016-11-07T21:11:02.535Z,0
2016-11-07T21:12:12.991Z,0
2016-11-07T21:13:23.429Z,0
2016-11-07T21:14:33.898Z,0
2016-11-07T21:15:44.343Z,0
2016-11-07T21:16:54.883Z,0
2016-11-07T21:18:19.869Z,0
2016-11-07T21:19:30.314Z,0
2016-11-07T21:20:55.301Z,0
2016-11-07T21:22:05.880Z,0
2016-11-07T21:23:30.864Z,0
2016-11-07T21:24:41.307Z,0
2016-11-07T21:25:51.754Z,0
2016-11-07T21:27:17.474Z,0
2016-11-07T21:28:27.918Z,0
2016-11-07T21:29:38.427Z,0
2016-11-07T21:30:48.874Z,0
2016-11-07T21:31:59.312Z,0
2016-11-07T21:33:09.852Z,0
2016-11-07T21:34:20.288Z,0
2016-11-07T21:35:30.727Z,0
2016-11-07T21:36:41.170Z,0
2016-11-07T21:38:06.151Z,0
2016-11-07T21:39:16.590Z,0
2016-11-07T21:40:27.036Z,0
2016-11-07T21:41:37.484Z,0
2016-11-07T21:44:41.994Z,0
2016-11-07T21:47:17.421Z,0
2016-11-07T21:48:27.863Z,0
2016-11-07T21:49:38.308Z,0
2016-11-07T21:50:49.235Z,0
2016-11-07T21:51:59.674Z,0
2016-11-07T21:53:24.659Z,0
2016-11-07T21:54:35.298Z,0
2016-11-07T21:55:45.740Z,0
2016-11-07T21:56:56.195Z,0
2016-11-07T21:58:07.171Z,0
2016-11-07T21:59:32.168Z,0
2016-11-07T22:00:43.095Z,0
2016-11-07T22:01:53.541Z,0
2016-11-07T22:03:04.466Z,0
2016-11-07T22:04:14.911Z,0
2016-11-07T22:05:25.454Z,0
2016-11-07T22:06:36.132Z,0
2016-11-07T22:07:46.572Z,0
2016-11-07T22:09:11.812Z,0
2016-11-07T22:10:22.251Z,0
2016-11-07T22:11:32.700Z,0
2016-11-07T22:12:43.182Z,0
2016-11-07T22:13:53.621Z,0
2016-11-07T22:15:04.261Z,0
2016-11-07T22:16:14.713Z,0
2016-11-07T22:17:25.152Z,0
2016-11-07T22:18:35.600Z,0
2016-11-07T22:19:46.060Z,0
2016-11-07T22:20:56.986Z,0
2016-11-07T22:22:07.427Z,0
2016-11-07T22:23:17.877Z,0
2016-11-07T22:24:28.318Z,0
2016-11-07T22:25:53.506Z,0
2016-11-07T22:27:03.943Z,0
2016-11-07T22:28:14.384Z,0
2016-11-07T22:29:24.821Z,0
2016-11-07T22:30:35.267Z,0
2016-11-07T22:31:45.806Z,0
2016-11-07T22:32:56.245Z,0
2016-11-07T22:34:06.687Z,0
2016-11-07T22:35:17.128Z,0
2016-11-07T22:36:27.568Z,0
2016-11-07T22:37:38.220Z,0
2016-11-07T22:38:48.661Z,0
2016-11-07T22:39:59.102Z,0
2016-11-07T22:41:09.545Z,0
2016-11-07T22:42:20.008Z,0
2016-11-07T22:43:30.447Z,0
2016-11-07T22:44:40.885Z,0
2016-11-07T22:45:51.325Z,0
2016-11-07T22:47:01.763Z,0
2016-11-07T22:48:12.205Z,0
2016-11-07T22:49:22.644Z,0
2016-11-07T22:50:47.624Z,0
2016-11-07T22:51:58.068Z,0
2016-11-07T22:53:08.505Z,0
2016-11-07T22:54:19.146Z,0
2016-11-07T22:55:29.586Z,0
2016-11-07T22:56:54.569Z,0
2016-11-07T22:58:05.008Z,0
2016-11-07T22:59:15.646Z,0
2016-11-07T23:00:26.096Z,0
2016-11-07T23:01:36.570Z,0
2016-11-07T23:02:47.011Z,0
2016-11-07T23:03:57.455Z,0
2016-11-07T23:05:07.900Z,0
2016-11-07T23:06:18.344Z,0
2016-11-07T23:07:28.788Z,0
2016-11-07T23:08:39.226Z,0
2016-11-07T23:09:49.672Z,0
2016-11-07T23:11:00.108Z,0
2016-11-07T23:12:10.551Z,0
2016-11-07T23:13:35.534Z,0
2016-11-07T23:14:45.976Z,0
2016-11-07T23:15:56.649Z,0
2016-11-07T23:18:32.075Z,0
2016-11-07T23:19:42.514Z,0
2016-11-07T23:20:53.053Z,0
2016-11-07T23:22:03.495Z,0
2016-11-07T23:23:28.483Z,0
2016-11-07T23:24:38.926Z,0
2016-11-07T23:25:49.405Z,0
2016-11-07T23:27:14.588Z,0
2016-11-07T23:28:25.027Z,0
2016-11-07T23:29:35.469Z,0
2016-11-07T23:30:45.911Z,0
2016-11-07T23:31:56.549Z,0
2016-11-07T23:33:06.989Z,0
2016-11-07T23:34:17.426Z,0
2016-11-07T23:35:27.876Z,0
2016-11-07T23:36:38.312Z,0
2016-11-07T23:37:48.988Z,0
2016-11-07T23:38:59.427Z,0
2016-11-07T23:40:09.870Z,0
2016-11-07T23:41:20.308Z,0
2016-11-07T23:42:30.747Z,0
2016-11-07T23:43:41.199Z,0
2016-11-07T23:45:06.184Z,0
2016-11-07T23:46:16.623Z,0
2016-11-07T23:47:27.063Z,0
2016-11-07T23:48:37.511Z,0
2016-11-07T23:49:47.951Z,0
2016-11-07T23:50:58.389Z,0
2016-11-07T23:52:08.826Z,0
2016-11-07T23:53:19.263Z,0
2016-11-07T23:54:29.743Z,0
2016-11-07T23:55:40.191Z,0
2016-11-07T23:56:50.634Z,0
2016-11-07T23:58:01.077Z,0
2016-11-07T23:59:11.560Z,0
